sensor_id;sensor_type;location;lat;lon;timestamp;P1;durP1;ratioP1;P2;durP2;ratioP2
4692;SDS011;11710;48.024;16.296;2023-02-28T06:33:27;36.58;;;18.10;;
4692;SDS011;11710;48.024;16.296;2023-02-28T06:35:54;31.17;;;15.80;;
4692;SDS011;11710;48.024;16.296;2023-02-28T06:38:21;25.55;;;14.38;;
4692;SDS011;11710;48.024;16.296;2023-02-28T06:40:52;24.23;;;15.70;;
4692;SDS011;11710;48.024;16.296;2023-02-28T06:43:20;27.15;;;15.90;;
4692;SDS011;11710;48.024;16.296;2023-02-28T06:45:48;24.63;;;16.55;;
4692;SDS011;11710;48.024;16.296;2023-02-28T06:48:15;23.33;;;14.85;;
4692;SDS011;11710;48.024;16.296;2023-02-28T06:50:45;27.17;;;15.40;;
4692;SDS011;11710;48.024;16.296;2023-02-28T06:53:13;26.38;;;15.80;;
4692;SDS011;11710;48.024;16.296;2023-02-28T06:55:41;24.23;;;14.90;;
4692;SDS011;11710;48.024;16.296;2023-02-28T06:58:08;23.65;;;15.68;;
4692;SDS011;11710;48.024;16.296;2023-02-28T07:00:40;21.80;;;13.35;;
4692;SDS011;11710;48.024;16.296;2023-02-28T07:03:07;21.90;;;14.05;;
4692;SDS011;11710;48.024;16.296;2023-02-28T07:05:34;22.95;;;13.85;;
4692;SDS011;11710;48.024;16.296;2023-02-28T07:08:04;19.55;;;12.82;;
4692;SDS011;11710;48.024;16.296;2023-02-28T07:10:33;21.60;;;12.85;;
4692;SDS011;11710;48.024;16.296;2023-02-28T07:13:01;20.98;;;13.70;;
4692;SDS011;11710;48.024;16.296;2023-02-28T07:15:28;23.80;;;15.40;;
4692;SDS011;11710;48.024;16.296;2023-02-28T07:17:56;20.92;;;14.02;;
4692;SDS011;11710;48.024;16.296;2023-02-28T07:20:23;22.05;;;13.45;;
4692;SDS011;11710;48.024;16.296;2023-02-28T07:22:51;21.67;;;13.80;;
4692;SDS011;11710;48.024;16.296;2023-02-28T07:25:23;21.65;;;14.20;;
4692;SDS011;11710;48.024;16.296;2023-02-28T07:27:50;23.05;;;13.73;;
4692;SDS011;11710;48.024;16.296;2023-02-28T07:30:18;22.20;;;14.02;;
4692;SDS011;11710;48.024;16.296;2023-02-28T07:32:45;23.33;;;13.73;;
4692;SDS011;11710;48.024;16.296;2023-02-28T07:35:13;20.63;;;13.82;;
4692;SDS011;11710;48.024;16.296;2023-02-28T07:37:41;24.58;;;14.13;;
4692;SDS011;11710;48.024;16.296;2023-02-28T07:40:10;27.00;;;14.15;;
4692;SDS011;11710;48.024;16.296;2023-02-28T07:42:39;24.67;;;14.40;;
4692;SDS011;11710;48.024;16.296;2023-02-28T07:45:08;22.52;;;14.55;;
4692;SDS011;11710;48.024;16.296;2023-02-28T07:47:37;21.92;;;14.75;;
4692;SDS011;11710;48.024;16.296;2023-02-28T07:50:05;22.17;;;15.05;;
4692;SDS011;11710;48.024;16.296;2023-02-28T07:52:32;24.40;;;14.20;;
4692;SDS011;11710;48.024;16.296;2023-02-28T07:55:00;26.58;;;14.73;;
4692;SDS011;11710;48.024;16.296;2023-02-28T07:57:27;22.58;;;15.05;;
4692;SDS011;11710;48.024;16.296;2023-02-28T07:59:56;24.20;;;14.65;;
4692;SDS011;11710;48.024;16.296;2023-02-28T08:02:23;19.60;;;13.80;;
4692;SDS011;11710;48.024;16.296;2023-02-28T08:04:51;24.02;;;14.05;;
4692;SDS011;11710;48.024;16.296;2023-02-28T08:07:18;22.45;;;15.38;;
4692;SDS011;11710;48.024;16.296;2023-02-28T08:09:46;24.02;;;14.70;;
4692;SDS011;11710;48.024;16.296;2023-02-28T08:12:13;25.40;;;14.40;;
4692;SDS011;11710;48.024;16.296;2023-02-28T08:14:41;24.50;;;14.82;;
4692;SDS011;11710;48.024;16.296;2023-02-28T08:17:10;21.05;;;14.18;;
4692;SDS011;11710;48.024;16.296;2023-02-28T08:19:38;23.02;;;15.30;;
4692;SDS011;11710;48.024;16.296;2023-02-28T08:22:05;22.45;;;13.90;;
4692;SDS011;11710;48.024;16.296;2023-02-28T08:24:33;18.73;;;14.18;;
4692;SDS011;11710;48.024;16.296;2023-02-28T08:27:01;23.30;;;14.93;;
4692;SDS011;11710;48.024;16.296;2023-02-28T08:29:29;22.63;;;14.73;;
4692;SDS011;11710;48.024;16.296;2023-02-28T08:31:56;22.77;;;15.15;;
4692;SDS011;11710;48.024;16.296;2023-02-28T08:34:25;20.65;;;14.40;;
4692;SDS011;11710;48.024;16.296;2023-02-28T08:36:53;20.38;;;14.18;;
4692;SDS011;11710;48.024;16.296;2023-02-28T08:39:20;22.33;;;15.65;;
4692;SDS011;11710;48.024;16.296;2023-02-28T08:41:48;20.35;;;15.32;;
4692;SDS011;11710;48.024;16.296;2023-02-28T08:44:15;20.70;;;15.30;;
4692;SDS011;11710;48.024;16.296;2023-02-28T08:46:43;18.97;;;13.90;;
4692;SDS011;11710;48.024;16.296;2023-02-28T08:49:10;24.10;;;15.07;;
4692;SDS011;11710;48.024;16.296;2023-02-28T08:51:39;18.50;;;15.50;;
4692;SDS011;11710;48.024;16.296;2023-02-28T08:54:07;20.70;;;15.90;;
4692;SDS011;11710;48.024;16.296;2023-02-28T08:56:37;19.30;;;15.80;;
4692;SDS011;11710;48.024;16.296;2023-02-28T08:59:05;22.60;;;16.97;;
4692;SDS011;11710;48.024;16.296;2023-02-28T09:01:33;19.30;;;15.60;;
4692;SDS011;11710;48.024;16.296;2023-02-28T09:04:01;19.57;;;15.43;;
4692;SDS011;11710;48.024;16.296;2023-02-28T09:06:29;21.27;;;14.93;;
4692;SDS011;11710;48.024;16.296;2023-02-28T09:08:58;17.90;;;14.60;;
4692;SDS011;11710;48.024;16.296;2023-02-28T09:11:26;19.13;;;15.50;;
4692;SDS011;11710;48.024;16.296;2023-02-28T09:13:54;21.33;;;16.67;;
4692;SDS011;11710;48.024;16.296;2023-02-28T09:16:21;18.00;;;14.50;;
4692;SDS011;11710;48.024;16.296;2023-02-28T09:18:49;21.73;;;14.98;;
4692;SDS011;11710;48.024;16.296;2023-02-28T09:21:17;22.45;;;15.93;;
4692;SDS011;11710;48.024;16.296;2023-02-28T09:23:45;21.50;;;14.98;;
4692;SDS011;11710;48.024;16.296;2023-02-28T09:26:15;20.92;;;15.02;;
4692;SDS011;11710;48.024;16.296;2023-02-28T09:28:43;18.92;;;14.20;;
4692;SDS011;11710;48.024;16.296;2023-02-28T09:31:11;21.55;;;14.95;;
4692;SDS011;11710;48.024;16.296;2023-02-28T09:33:39;19.67;;;15.30;;
4692;SDS011;11710;48.024;16.296;2023-02-28T09:36:06;23.17;;;15.68;;
4692;SDS011;11710;48.024;16.296;2023-02-28T09:38:34;20.70;;;15.07;;
4692;SDS011;11710;48.024;16.296;2023-02-28T09:41:03;24.40;;;15.70;;
4692;SDS011;11710;48.024;16.296;2023-02-28T09:43:33;21.50;;;14.95;;
4692;SDS011;11710;48.024;16.296;2023-02-28T09:46:05;21.63;;;15.02;;
4692;SDS011;11710;48.024;16.296;2023-02-28T09:48:34;26.85;;;16.55;;
4692;SDS011;11710;48.024;16.296;2023-02-28T09:51:03;20.90;;;15.70;;
4692;SDS011;11710;48.024;16.296;2023-02-28T09:53:31;22.13;;;16.43;;
4692;SDS011;11710;48.024;16.296;2023-02-28T09:56:01;23.30;;;16.63;;
4692;SDS011;11710;48.024;16.296;2023-02-28T09:58:32;20.80;;;15.87;;
4692;SDS011;11710;48.024;16.296;2023-02-28T10:01:05;22.88;;;16.90;;
4692;SDS011;11710;48.024;16.296;2023-02-28T10:03:35;23.83;;;16.27;;
4692;SDS011;11710;48.024;16.296;2023-02-28T10:06:07;18.25;;;14.55;;
4692;SDS011;11710;48.024;16.296;2023-02-28T10:08:37;22.77;;;15.27;;
4692;SDS011;11710;48.024;16.296;2023-02-28T10:11:11;20.83;;;15.18;;
4692;SDS011;11710;48.024;16.296;2023-02-28T10:13:41;21.05;;;14.25;;
4692;SDS011;11710;48.024;16.296;2023-02-28T10:16:15;19.27;;;15.07;;
4692;SDS011;11710;48.024;16.296;2023-02-28T10:18:46;24.08;;;16.45;;
4692;SDS011;11710;48.024;16.296;2023-02-28T10:21:16;19.67;;;14.07;;
4692;SDS011;11710;48.024;16.296;2023-02-28T10:23:45;18.88;;;14.07;;
4692;SDS011;11710;48.024;16.296;2023-02-28T10:26:14;22.38;;;14.50;;
4692;SDS011;11710;48.024;16.296;2023-02-28T10:28:44;21.88;;;14.65;;
4692;SDS011;11710;48.024;16.296;2023-02-28T10:31:14;22.27;;;16.35;;
4692;SDS011;11710;48.024;16.296;2023-02-28T10:33:44;18.75;;;14.30;;
4692;SDS011;11710;48.024;16.296;2023-02-28T10:36:13;24.75;;;16.15;;
4692;SDS011;11710;48.024;16.296;2023-02-28T10:38:42;20.42;;;14.65;;
4692;SDS011;11710;48.024;16.296;2023-02-28T10:41:10;23.65;;;15.02;;
4692;SDS011;11710;48.024;16.296;2023-02-28T10:43:40;26.02;;;15.35;;
4692;SDS011;11710;48.024;16.296;2023-02-28T10:46:12;25.20;;;16.45;;
4692;SDS011;11710;48.024;16.296;2023-02-28T10:48:59;23.42;;;14.30;;
4692;SDS011;11710;48.024;16.296;2023-02-28T10:51:33;22.77;;;15.35;;
4692;SDS011;11710;48.024;16.296;2023-02-28T10:54:01;25.85;;;15.32;;
4692;SDS011;11710;48.024;16.296;2023-02-28T10:56:30;25.70;;;15.55;;
4692;SDS011;11710;48.024;16.296;2023-02-28T10:58:58;22.83;;;15.73;;
4692;SDS011;11710;48.024;16.296;2023-02-28T11:01:34;24.55;;;14.70;;
4692;SDS011;11710;48.024;16.296;2023-02-28T11:04:03;22.75;;;13.43;;
4692;SDS011;11710;48.024;16.296;2023-02-28T11:06:43;20.27;;;13.90;;
4692;SDS011;11710;48.024;16.296;2023-02-28T11:09:16;24.33;;;14.30;;
4692;SDS011;11710;48.024;16.296;2023-02-28T11:11:45;21.38;;;14.02;;
4692;SDS011;11710;48.024;16.296;2023-02-28T11:14:16;25.10;;;15.25;;
4692;SDS011;11710;48.024;16.296;2023-02-28T11:16:45;21.60;;;14.40;;
4692;SDS011;11710;48.024;16.296;2023-02-28T11:19:18;21.80;;;14.13;;
4692;SDS011;11710;48.024;16.296;2023-02-28T11:21:48;21.38;;;13.93;;
4692;SDS011;11710;48.024;16.296;2023-02-28T11:24:20;25.02;;;14.13;;
4692;SDS011;11710;48.024;16.296;2023-02-28T11:26:48;20.10;;;13.18;;
4692;SDS011;11710;48.024;16.296;2023-02-28T11:29:17;21.98;;;13.02;;
4692;SDS011;11710;48.024;16.296;2023-02-28T11:32:00;20.38;;;12.45;;
4692;SDS011;11710;48.024;16.296;2023-02-28T11:34:29;20.00;;;13.00;;
4692;SDS011;11710;48.024;16.296;2023-02-28T11:36:57;18.38;;;12.35;;
4692;SDS011;11710;48.024;16.296;2023-02-28T11:39:25;20.48;;;12.73;;
4692;SDS011;11710;48.024;16.296;2023-02-28T11:41:57;21.00;;;12.70;;
4692;SDS011;11710;48.024;16.296;2023-02-28T11:44:30;21.65;;;13.00;;
4692;SDS011;11710;48.024;16.296;2023-02-28T11:47:01;20.73;;;12.88;;
4692;SDS011;11710;48.024;16.296;2023-02-28T11:49:34;22.50;;;14.18;;
4692;SDS011;11710;48.024;16.296;2023-02-28T11:52:05;22.70;;;13.38;;
4692;SDS011;11710;48.024;16.296;2023-02-28T11:54:48;20.45;;;12.32;;
4692;SDS011;11710;48.024;16.296;2023-02-28T11:57:23;21.42;;;12.77;;
4692;SDS011;11710;48.024;16.296;2023-02-28T11:59:54;19.83;;;12.00;;
4692;SDS011;11710;48.024;16.296;2023-02-28T12:02:27;22.30;;;13.38;;
4692;SDS011;11710;48.024;16.296;2023-02-28T12:05:04;21.55;;;12.95;;
4692;SDS011;11710;48.024;16.296;2023-02-28T12:07:35;20.50;;;13.75;;
4692;SDS011;11710;48.024;16.296;2023-02-28T12:10:06;21.65;;;13.18;;
4692;SDS011;11710;48.024;16.296;2023-02-28T12:12:42;22.60;;;13.57;;
4692;SDS011;11710;48.024;16.296;2023-02-28T12:17:58;20.10;;;11.82;;
4692;SDS011;11710;48.024;16.296;2023-02-28T12:20:30;22.83;;;12.80;;
4692;SDS011;11710;48.024;16.296;2023-02-28T12:23:06;20.50;;;13.95;;
4692;SDS011;11710;48.024;16.296;2023-02-28T12:25:38;22.58;;;13.15;;
4692;SDS011;11710;48.024;16.296;2023-02-28T12:28:12;22.10;;;12.05;;
4692;SDS011;11710;48.024;16.296;2023-02-28T12:30:41;17.83;;;12.32;;
4692;SDS011;11710;48.024;16.296;2023-02-28T12:33:12;19.10;;;12.93;;
4692;SDS011;11710;48.024;16.296;2023-02-28T12:35:43;22.15;;;13.45;;
4692;SDS011;11710;48.024;16.296;2023-02-28T12:38:14;25.13;;;13.70;;
4692;SDS011;11710;48.024;16.296;2023-02-28T12:40:45;19.17;;;12.45;;
4692;SDS011;11710;48.024;16.296;2023-02-28T12:43:14;20.30;;;12.88;;
4692;SDS011;11710;48.024;16.296;2023-02-28T12:45:45;21.10;;;13.07;;
4692;SDS011;11710;48.024;16.296;2023-02-28T12:48:15;18.73;;;12.60;;
4692;SDS011;11710;48.024;16.296;2023-02-28T12:50:48;20.40;;;13.15;;
4692;SDS011;11710;48.024;16.296;2023-02-28T12:53:18;19.33;;;12.35;;
4692;SDS011;11710;48.024;16.296;2023-02-28T12:55:50;20.63;;;11.80;;
4692;SDS011;11710;48.024;16.296;2023-02-28T12:58:20;20.15;;;13.05;;
4692;SDS011;11710;48.024;16.296;2023-02-28T13:00:59;18.35;;;12.50;;
4692;SDS011;11710;48.024;16.296;2023-02-28T13:03:32;17.67;;;12.77;;
4692;SDS011;11710;48.024;16.296;2023-02-28T13:06:14;19.40;;;11.65;;
4692;SDS011;11710;48.024;16.296;2023-02-28T13:11:33;19.48;;;12.00;;
4692;SDS011;11710;48.024;16.296;2023-02-28T13:14:01;15.45;;;10.52;;
4692;SDS011;11710;48.024;16.296;2023-02-28T13:19:16;18.23;;;12.38;;
4692;SDS011;11710;48.024;16.296;2023-02-28T13:21:45;16.40;;;12.65;;
4692;SDS011;11710;48.024;16.296;2023-02-28T13:27:20;16.75;;;11.63;;
4692;SDS011;11710;48.024;16.296;2023-02-28T13:29:51;18.95;;;11.43;;
4692;SDS011;11710;48.024;16.296;2023-02-28T13:32:29;19.83;;;12.07;;
4692;SDS011;11710;48.024;16.296;2023-02-28T13:37:46;16.60;;;12.23;;
4692;SDS011;11710;48.024;16.296;2023-02-28T13:40:32;15.30;;;10.68;;
4692;SDS011;11710;48.024;16.296;2023-02-28T13:43:03;17.90;;;11.93;;
4692;SDS011;11710;48.024;16.296;2023-02-28T13:45:30;17.88;;;11.90;;
4692;SDS011;11710;48.024;16.296;2023-02-28T13:48:03;19.02;;;12.27;;
4692;SDS011;11710;48.024;16.296;2023-02-28T13:50:32;19.08;;;11.68;;
4692;SDS011;11710;48.024;16.296;2023-02-28T13:53:24;17.95;;;11.20;;
4692;SDS011;11710;48.024;16.296;2023-02-28T13:55:57;15.82;;;10.73;;
4692;SDS011;11710;48.024;16.296;2023-02-28T14:01:14;16.23;;;10.20;;
4692;SDS011;11710;48.024;16.296;2023-02-28T14:03:47;14.93;;;10.98;;
4692;SDS011;11710;48.024;16.296;2023-02-28T14:06:21;19.33;;;12.05;;
4692;SDS011;11710;48.024;16.296;2023-02-28T14:08:54;18.30;;;12.15;;
4692;SDS011;11710;48.024;16.296;2023-02-28T14:11:27;17.65;;;11.82;;
4692;SDS011;11710;48.024;16.296;2023-02-28T14:13:55;15.23;;;11.52;;
4692;SDS011;11710;48.024;16.296;2023-02-28T14:16:23;19.48;;;12.52;;
4692;SDS011;11710;48.024;16.296;2023-02-28T14:18:54;18.95;;;11.55;;
4692;SDS011;11710;48.024;16.296;2023-02-28T14:21:24;19.35;;;13.70;;
4692;SDS011;11710;48.024;16.296;2023-02-28T14:32:10;18.75;;;10.57;;
4692;SDS011;11710;48.024;16.296;2023-02-28T14:34:42;16.27;;;10.75;;
4692;SDS011;11710;48.024;16.296;2023-02-28T14:37:13;12.10;;;9.60;;
4692;SDS011;11710;48.024;16.296;2023-02-28T14:39:41;18.33;;;10.82;;
4692;SDS011;11710;48.024;16.296;2023-02-28T14:44:53;14.85;;;9.85;;
4692;SDS011;11710;48.024;16.296;2023-02-28T14:47:23;16.92;;;10.27;;
4692;SDS011;11710;48.024;16.296;2023-02-28T14:49:52;16.92;;;10.85;;
4692;SDS011;11710;48.024;16.296;2023-02-28T14:52:21;19.05;;;12.15;;
4692;SDS011;11710;48.024;16.296;2023-02-28T14:54:51;17.73;;;12.32;;
4692;SDS011;11710;48.024;16.296;2023-02-28T14:57:21;16.85;;;10.90;;
4692;SDS011;11710;48.024;16.296;2023-02-28T14:59:56;17.88;;;10.63;;
4692;SDS011;11710;48.024;16.296;2023-02-28T15:02:25;15.95;;;10.38;;
4692;SDS011;11710;48.024;16.296;2023-02-28T15:04:54;16.65;;;10.25;;
4692;SDS011;11710;48.024;16.296;2023-02-28T15:07:22;16.02;;;11.18;;
4692;SDS011;11710;48.024;16.296;2023-02-28T15:10:10;15.52;;;10.75;;
4692;SDS011;11710;48.024;16.296;2023-02-28T15:12:37;19.50;;;12.05;;
4692;SDS011;11710;48.024;16.296;2023-02-28T15:15:13;17.02;;;11.07;;
4692;SDS011;11710;48.024;16.296;2023-02-28T15:17:42;13.52;;;10.30;;
4692;SDS011;11710;48.024;16.296;2023-02-28T15:20:12;45.60;;;26.80;;
4692;SDS011;11710;48.024;16.296;2023-02-28T15:22:41;36.28;;;25.25;;
4692;SDS011;11710;48.024;16.296;2023-02-28T15:25:09;22.75;;;16.20;;
4692;SDS011;11710;48.024;16.296;2023-02-28T15:27:42;16.25;;;11.85;;
4692;SDS011;11710;48.024;16.296;2023-02-28T15:30:15;14.48;;;10.18;;
4692;SDS011;11710;48.024;16.296;2023-02-28T15:32:45;14.43;;;10.52;;
4692;SDS011;11710;48.024;16.296;2023-02-28T15:35:29;19.40;;;9.68;;
4692;SDS011;11710;48.024;16.296;2023-02-28T15:37:58;14.80;;;9.80;;
4692;SDS011;11710;48.024;16.296;2023-02-28T15:40:28;16.40;;;10.68;;
4692;SDS011;11710;48.024;16.296;2023-02-28T15:42:59;13.73;;;9.63;;
4692;SDS011;11710;48.024;16.296;2023-02-28T15:45:28;15.70;;;11.02;;
4692;SDS011;11710;48.024;16.296;2023-02-28T15:47:57;16.75;;;11.05;;
4692;SDS011;11710;48.024;16.296;2023-02-28T15:50:27;17.52;;;10.65;;
4692;SDS011;11710;48.024;16.296;2023-02-28T15:52:55;16.13;;;10.57;;
4692;SDS011;11710;48.024;16.296;2023-02-28T15:55:24;15.00;;;10.35;;
4692;SDS011;11710;48.024;16.296;2023-02-28T15:57:54;15.82;;;10.77;;
4692;SDS011;11710;48.024;16.296;2023-02-28T16:00:25;15.35;;;10.70;;
4692;SDS011;11710;48.024;16.296;2023-02-28T16:02:54;14.35;;;10.23;;
4692;SDS011;11710;48.024;16.296;2023-02-28T16:05:25;18.92;;;10.80;;
4692;SDS011;11710;48.024;16.296;2023-02-28T16:07:57;17.33;;;10.95;;
4692;SDS011;11710;48.024;16.296;2023-02-28T16:10:25;23.17;;;14.30;;
4692;SDS011;11710;48.024;16.296;2023-02-28T16:12:53;16.27;;;11.07;;
4692;SDS011;11710;48.024;16.296;2023-02-28T16:15:22;14.15;;;11.13;;
4692;SDS011;11710;48.024;16.296;2023-02-28T16:17:51;14.15;;;10.40;;
4692;SDS011;11710;48.024;16.296;2023-02-28T16:20:19;16.45;;;11.20;;
4692;SDS011;11710;48.024;16.296;2023-02-28T16:22:49;15.95;;;10.90;;
4692;SDS011;11710;48.024;16.296;2023-02-28T16:25:17;18.73;;;11.13;;
4692;SDS011;11710;48.024;16.296;2023-02-28T16:27:45;20.13;;;11.35;;
4692;SDS011;11710;48.024;16.296;2023-02-28T16:30:16;24.02;;;11.88;;
4692;SDS011;11710;48.024;16.296;2023-02-28T16:32:45;20.55;;;12.73;;
4692;SDS011;11710;48.024;16.296;2023-02-28T16:35:13;19.83;;;12.50;;
4692;SDS011;11710;48.024;16.296;2023-02-28T16:37:43;21.88;;;14.00;;
4692;SDS011;11710;48.024;16.296;2023-02-28T16:40:14;24.52;;;14.18;;
4692;SDS011;11710;48.024;16.296;2023-02-28T16:42:42;23.17;;;13.20;;
4692;SDS011;11710;48.024;16.296;2023-02-28T16:45:14;21.80;;;14.43;;
4692;SDS011;11710;48.024;16.296;2023-02-28T16:47:43;34.92;;;17.15;;
4692;SDS011;11710;48.024;16.296;2023-02-28T16:50:12;30.35;;;16.50;;
4692;SDS011;11710;48.024;16.296;2023-02-28T16:52:40;24.33;;;14.82;;
4692;SDS011;11710;48.024;16.296;2023-02-28T16:55:07;35.70;;;19.85;;
4692;SDS011;11710;48.024;16.296;2023-02-28T16:57:36;25.17;;;15.32;;
4692;SDS011;11710;48.024;16.296;2023-02-28T17:00:05;26.88;;;15.00;;
4692;SDS011;11710;48.024;16.296;2023-02-28T17:02:34;24.45;;;14.80;;
4692;SDS011;11710;48.024;16.296;2023-02-28T17:05:02;27.27;;;16.90;;
4692;SDS011;11710;48.024;16.296;2023-02-28T17:07:29;22.05;;;13.45;;
4692;SDS011;11710;48.024;16.296;2023-02-28T17:09:57;19.67;;;12.82;;
4692;SDS011;11710;48.024;16.296;2023-02-28T17:12:27;20.13;;;13.00;;
4692;SDS011;11710;48.024;16.296;2023-02-28T17:14:55;24.10;;;14.70;;
4692;SDS011;11710;48.024;16.296;2023-02-28T17:17:23;40.72;;;21.30;;
4692;SDS011;11710;48.024;16.296;2023-02-28T17:19:50;31.80;;;17.13;;
4692;SDS011;11710;48.024;16.296;2023-02-28T17:22:18;28.52;;;16.92;;
4692;SDS011;11710;48.024;16.296;2023-02-28T17:24:45;34.63;;;18.65;;
4692;SDS011;11710;48.024;16.296;2023-02-28T17:27:13;37.90;;;21.15;;
4692;SDS011;11710;48.024;16.296;2023-02-28T17:29:41;40.15;;;23.48;;
4692;SDS011;11710;48.024;16.296;2023-02-28T17:32:09;43.03;;;22.75;;
4692;SDS011;11710;48.024;16.296;2023-02-28T17:34:37;45.58;;;24.70;;
4692;SDS011;11710;48.024;16.296;2023-02-28T17:37:04;50.47;;;26.85;;
4692;SDS011;11710;48.024;16.296;2023-02-28T17:39:32;43.25;;;23.92;;
4692;SDS011;11710;48.024;16.296;2023-02-28T17:41:59;42.22;;;25.30;;
4692;SDS011;11710;48.024;16.296;2023-02-28T17:44:27;30.70;;;21.25;;
4692;SDS011;11710;48.024;16.296;2023-02-28T17:46:54;32.05;;;20.42;;
4692;SDS011;11710;48.024;16.296;2023-02-28T17:49:24;31.13;;;20.30;;
4692;SDS011;11710;48.024;16.296;2023-02-28T17:51:51;26.02;;;18.55;;
4692;SDS011;11710;48.024;16.296;2023-02-28T17:54:18;25.30;;;17.98;;
4692;SDS011;11710;48.024;16.296;2023-02-28T17:56:46;30.17;;;18.45;;
4692;SDS011;11710;48.024;16.296;2023-02-28T17:59:13;30.67;;;19.42;;
4692;SDS011;11710;48.024;16.296;2023-02-28T18:01:41;34.90;;;22.08;;
4692;SDS011;11710;48.024;16.296;2023-02-28T18:04:08;34.05;;;21.13;;
4692;SDS011;11710;48.024;16.296;2023-02-28T18:06:38;44.47;;;25.55;;
4692;SDS011;11710;48.024;16.296;2023-02-28T18:09:11;50.65;;;28.88;;
4692;SDS011;11710;48.024;16.296;2023-02-28T18:11:39;55.15;;;30.00;;
4692;SDS011;11710;48.024;16.296;2023-02-28T18:14:13;49.10;;;30.27;;
4692;SDS011;11710;48.024;16.296;2023-02-28T18:16:40;57.10;;;30.90;;
4692;SDS011;11710;48.024;16.296;2023-02-28T18:19:08;53.75;;;32.85;;
4692;SDS011;11710;48.024;16.296;2023-02-28T18:21:41;61.58;;;34.83;;
4692;SDS011;11710;48.024;16.296;2023-02-28T18:24:09;60.33;;;36.58;;
4692;SDS011;11710;48.024;16.296;2023-02-28T18:26:37;68.57;;;33.45;;
4692;SDS011;11710;48.024;16.296;2023-02-28T18:29:05;61.92;;;33.20;;
4692;SDS011;11710;48.024;16.296;2023-02-28T18:31:32;59.25;;;32.42;;
4692;SDS011;11710;48.024;16.296;2023-02-28T18:34:00;49.75;;;29.80;;
4692;SDS011;11710;48.024;16.296;2023-02-28T18:36:27;40.63;;;26.38;;
4692;SDS011;11710;48.024;16.296;2023-02-28T18:38:56;38.88;;;21.60;;
4692;SDS011;11710;48.024;16.296;2023-02-28T18:41:23;38.15;;;23.50;;
4692;SDS011;11710;48.024;16.296;2023-02-28T18:43:53;39.92;;;24.15;;
4692;SDS011;11710;48.024;16.296;2023-02-28T18:46:20;42.45;;;27.73;;
4692;SDS011;11710;48.024;16.296;2023-02-28T18:48:48;41.35;;;24.73;;
4692;SDS011;11710;48.024;16.296;2023-02-28T18:51:16;46.05;;;26.50;;
4692;SDS011;11710;48.024;16.296;2023-02-28T18:53:44;47.10;;;27.73;;
4692;SDS011;11710;48.024;16.296;2023-02-28T18:56:13;55.17;;;32.60;;
4692;SDS011;11710;48.024;16.296;2023-02-28T18:58:41;58.95;;;33.30;;
4692;SDS011;11710;48.024;16.296;2023-02-28T19:01:13;50.30;;;30.88;;
4692;SDS011;11710;48.024;16.296;2023-02-28T19:03:41;42.58;;;25.30;;
4692;SDS011;11710;48.024;16.296;2023-02-28T19:06:09;42.92;;;27.35;;
4692;SDS011;11710;48.024;16.296;2023-02-28T19:08:36;42.85;;;26.73;;
4692;SDS011;11710;48.024;16.296;2023-02-28T19:11:07;41.33;;;26.20;;
4692;SDS011;11710;48.024;16.296;2023-02-28T19:13:36;41.83;;;25.67;;
4692;SDS011;11710;48.024;16.296;2023-02-28T19:16:04;46.22;;;26.25;;
4692;SDS011;11710;48.024;16.296;2023-02-28T19:18:32;37.10;;;25.42;;
4692;SDS011;11710;48.024;16.296;2023-02-28T19:21:00;46.03;;;27.77;;
4692;SDS011;11710;48.024;16.296;2023-02-28T19:23:29;55.20;;;32.63;;
4692;SDS011;11710;48.024;16.296;2023-02-28T19:25:58;65.20;;;30.67;;
4692;SDS011;11710;48.024;16.296;2023-02-28T19:28:26;49.22;;;29.40;;
4692;SDS011;11710;48.024;16.296;2023-02-28T19:30:56;49.22;;;30.10;;
4692;SDS011;11710;48.024;16.296;2023-02-28T19:33:23;40.50;;;26.20;;
4692;SDS011;11710;48.024;16.296;2023-02-28T19:35:51;52.70;;;28.60;;
4692;SDS011;11710;48.024;16.296;2023-02-28T19:38:18;47.25;;;28.60;;
4692;SDS011;11710;48.024;16.296;2023-02-28T19:40:46;50.35;;;29.40;;
4692;SDS011;11710;48.024;16.296;2023-02-28T19:43:13;70.88;;;41.45;;
4692;SDS011;11710;48.024;16.296;2023-02-28T19:45:41;63.15;;;37.85;;
4692;SDS011;11710;48.024;16.296;2023-02-28T19:48:10;59.97;;;36.00;;
4692;SDS011;11710;48.024;16.296;2023-02-28T19:50:37;45.78;;;27.45;;
4692;SDS011;11710;48.024;16.296;2023-02-28T19:53:06;64.70;;;38.63;;
4692;SDS011;11710;48.024;16.296;2023-02-28T19:55:33;63.90;;;33.72;;
4692;SDS011;11710;48.024;16.296;2023-02-28T19:58:01;51.80;;;30.90;;
4692;SDS011;11710;48.024;16.296;2023-02-28T20:00:28;61.15;;;34.60;;
4692;SDS011;11710;48.024;16.296;2023-02-28T20:02:55;65.85;;;36.72;;
4692;SDS011;11710;48.024;16.296;2023-02-28T20:05:24;67.65;;;39.70;;
4692;SDS011;11710;48.024;16.296;2023-02-28T20:07:52;65.72;;;39.50;;
4692;SDS011;11710;48.024;16.296;2023-02-28T20:10:19;65.35;;;40.03;;
4692;SDS011;11710;48.024;16.296;2023-02-28T20:12:46;70.38;;;38.20;;
4692;SDS011;11710;48.024;16.296;2023-02-28T20:15:14;57.05;;;38.28;;
4692;SDS011;11710;48.024;16.296;2023-02-28T20:17:41;68.68;;;45.38;;
4692;SDS011;11710;48.024;16.296;2023-02-28T20:20:11;68.30;;;46.33;;
4692;SDS011;11710;48.024;16.296;2023-02-28T20:22:40;63.38;;;42.45;;
4692;SDS011;11710;48.024;16.296;2023-02-28T20:25:08;64.95;;;38.70;;
4692;SDS011;11710;48.024;16.296;2023-02-28T20:27:36;53.50;;;32.35;;
4692;SDS011;11710;48.024;16.296;2023-02-28T20:30:05;53.08;;;32.78;;
4692;SDS011;11710;48.024;16.296;2023-02-28T20:32:33;52.30;;;31.40;;
4692;SDS011;11710;48.024;16.296;2023-02-28T20:35:03;52.75;;;31.58;;
4692;SDS011;11710;48.024;16.296;2023-02-28T20:37:33;64.82;;;33.80;;
4692;SDS011;11710;48.024;16.296;2023-02-28T20:40:01;59.70;;;35.17;;
4692;SDS011;11710;48.024;16.296;2023-02-28T20:42:29;59.80;;;34.63;;
4692;SDS011;11710;48.024;16.296;2023-02-28T20:44:56;56.20;;;33.83;;
4692;SDS011;11710;48.024;16.296;2023-02-28T20:47:24;59.55;;;33.42;;
4692;SDS011;11710;48.024;16.296;2023-02-28T20:49:51;54.92;;;32.05;;
4692;SDS011;11710;48.024;16.296;2023-02-28T20:52:19;56.67;;;33.38;;
4692;SDS011;11710;48.024;16.296;2023-02-28T20:54:46;59.08;;;32.80;;
4692;SDS011;11710;48.024;16.296;2023-02-28T20:57:15;59.20;;;37.25;;
4692;SDS011;11710;48.024;16.296;2023-02-28T20:59:42;60.45;;;36.17;;
4692;SDS011;11710;48.024;16.296;2023-02-28T21:02:10;65.00;;;38.63;;
4692;SDS011;11710;48.024;16.296;2023-02-28T21:04:41;75.43;;;42.28;;
4692;SDS011;11710;48.024;16.296;2023-02-28T21:07:08;82.32;;;43.58;;
4692;SDS011;11710;48.024;16.296;2023-02-28T21:09:36;90.60;;;45.10;;
4692;SDS011;11710;48.024;16.296;2023-02-28T21:12:03;96.88;;;50.88;;
4692;SDS011;11710;48.024;16.296;2023-02-28T21:14:32;92.90;;;49.40;;
